This is the latest recevied weather packets stored in our database for station/object IU1OLT-7. If no packets are shown the sender has not sent any weather packets the latest 10 day(s).
| Time | Temp. | Humidity | Pressure | Rain* | Wind** | Luminosity | Snow |
|---|---|---|---|---|---|---|---|
| 1787815447 | 31.67° C | 29% | 1023.8 hPa | - | - | - | - |
| 1787814547 | 29.44° C | 30% | 1023.7 hPa | - | - | - | - |
| 1787813647 | 28.89° C | 29% | 1023.6 hPa | - | - | - | - |
| 1787812747 | 30° C | 29% | 1023.6 hPa | - | - | - | - |
| 1787811847 | 28.89° C | 31% | 1023.5 hPa | - | - | - | - |
| 1787810947 | 26.67° C | 33% | 1023.3 hPa | - | - | - | - |
| 1787810047 | 26.11° C | 31% | 1023.4 hPa | - | - | - | - |
| 1787809147 | 25.56° C | 34% | 1023.4 hPa | - | - | - | - |
| 1787808247 | 23.33° C | 44% | 1023.4 hPa | - | - | - | - |
| 1787807347 | 23.33° C | 58% | 1023.3 hPa | - | - | - | - |
| 1787806447 | 22.22° C | 67% | 1023.3 hPa | - | - | - | - |
| 1787805547 | 23.89° C | 56% | 1023.4 hPa | - | - | - | - |
| 1787804679 | 25.56° C | 51% | 1023.6 hPa | - | - | - | - |
| 1787804647 | 25.56° C | 51% | 1023.6 hPa | - | - | - | - |
| 1787803747 | 23.89° C | 57% | 1023.7 hPa | - | - | - | - |
| 1787802847 | 25.56° C | 52% | 1023.5 hPa | - | - | - | - |
| 1787801947 | 23.89° C | 55% | 1023.7 hPa | - | - | - | - |
| 1787801047 | 26.11° C | 52% | 1023.6 hPa | - | - | - | - |
| 1787800147 | 23.89° C | 63% | 1023.5 hPa | - | - | - | - |
| 1787799247 | 22.78° C | 64% | 1023.4 hPa | - | - | - | - |
| 1787798347 | 23.89° C | 60% | 1023.5 hPa | - | - | - | - |
| 1787797447 | 25.56° C | 49% | 1023.8 hPa | - | - | - | - |
| 1787796547 | 25° C | 50% | 1023.6 hPa | - | - | - | - |
| 1787795647 | 25° C | 50% | 1023.5 hPa | - | - | - | - |
| 1787794747 | 26.67° C | 44% | 1023.4 hPa | - | - | - | - |
* Rain since midnight (hover to see other rain measurements)
** Current wind speed in m/s (hover to see current wind gust speed)